createdAt,value
2022-09-27T00:00:06.016Z,10.3
2022-09-27T00:02:09.728Z,10.3
2022-09-27T00:04:13.170Z,9.4
2022-09-27T00:06:16.737Z,9.7
2022-09-27T00:08:20.339Z,9.6
2022-09-27T00:10:26.990Z,9.5
2022-09-27T00:12:30.609Z,9.6
2022-09-27T00:14:34.201Z,9.9
2022-09-27T00:15:37.557Z,9.8
2022-09-27T00:17:41.101Z,10.1
2022-09-27T00:19:44.698Z,9.6
2022-09-27T00:21:48.284Z,10.1
2022-09-27T00:23:54.949Z,9.5
2022-09-27T00:25:58.546Z,9.4
2022-09-27T00:28:02.115Z,9.8
2022-09-27T00:30:05.719Z,9.8
2022-09-27T00:32:09.316Z,9.4
2022-09-27T00:34:12.891Z,9.2
2022-09-27T00:36:16.494Z,9.3
2022-09-27T00:38:23.156Z,9.2
2022-09-27T00:40:26.767Z,9.8
2022-09-27T00:42:30.332Z,9.6
2022-09-27T00:44:33.918Z,9.9
2022-09-27T00:46:37.580Z,9.8
2022-09-27T00:48:41.100Z,9.4
2022-09-27T00:50:44.702Z,10
2022-09-27T00:52:51.326Z,9.3
2022-09-27T00:54:54.947Z,9.9
2022-09-27T00:56:58.561Z,10
2022-09-27T00:59:02.123Z,9.4
2022-09-27T01:01:05.781Z,9.2
2022-09-27T01:03:09.293Z,10
2022-09-27T01:05:12.867Z,9.8
2022-09-27T01:07:19.567Z,9.8
2022-09-27T01:09:23.124Z,9.2
2022-09-27T01:11:26.696Z,9.8
2022-09-27T01:13:51.058Z,9.2
2022-09-27T01:15:54.735Z,9
2022-09-27T01:17:58.250Z,9.7
2022-09-27T01:22:08.498Z,9
2022-09-27T01:28:19.328Z,9.1
2022-09-27T01:36:56.179Z,9.1
2022-09-27T01:38:40.303Z,9.1
2022-09-27T01:40:43.927Z,9.1
2022-09-27T01:42:47.510Z,9
2022-09-27T01:44:51.099Z,9.3
2022-09-27T01:46:54.673Z,9.1
2022-09-27T01:49:01.342Z,9.5
2022-09-27T01:51:04.931Z,9.5
2022-09-27T01:53:08.529Z,9.3
2022-09-27T01:55:12.217Z,8.7
2022-09-27T01:57:15.741Z,9.1
2022-09-27T01:59:19.342Z,9
2022-09-27T02:01:22.965Z,9.2
2022-09-27T02:03:29.610Z,9.3
2022-09-27T02:05:33.209Z,8.7
2022-09-27T02:07:36.784Z,8.5
2022-09-27T02:08:40.148Z,8.8
2022-09-27T02:10:43.737Z,9.1
2022-09-27T02:12:47.333Z,9.3
2022-09-27T02:14:50.925Z,9.5
2022-09-27T02:16:57.606Z,8.9
2022-09-27T02:19:01.222Z,9
2022-09-27T02:21:04.825Z,9.5
2022-09-27T02:23:08.413Z,8.7
2022-09-27T02:25:12.011Z,8.9
2022-09-27T02:27:15.639Z,9.4
2022-09-27T02:29:19.241Z,9
2022-09-27T02:31:25.982Z,9.1
2022-09-27T02:33:29.473Z,9.1
2022-09-27T02:35:33.095Z,9
2022-09-27T02:37:36.671Z,8.5
2022-09-27T02:40:21.710Z,9.1
2022-09-27T02:41:43.880Z,9.2
2022-09-27T02:43:47.516Z,9.1
2022-09-27T02:45:54.243Z,8.6
2022-09-27T02:47:59.478Z,8.3
2022-09-27T02:50:01.424Z,9.1
2022-09-27T02:54:08.610Z,8.3
2022-09-27T02:56:12.195Z,8.7
2022-09-27T02:58:15.802Z,8.2
2022-09-27T03:00:22.492Z,8.3
2022-09-27T03:04:29.689Z,8.7
2022-09-27T03:05:33.024Z,8.2
2022-09-27T03:09:40.228Z,8.4
2022-09-27T03:24:09.254Z,8.8
2022-09-27T03:26:13.203Z,8.1
2022-09-27T03:30:22.457Z,8.5
2022-09-27T03:32:26.014Z,8.1
2022-09-27T03:34:29.679Z,8.5
2022-09-27T03:36:33.271Z,8.6
2022-09-27T03:38:36.868Z,8
2022-09-27T03:40:40.529Z,8.7
2022-09-27T03:42:49.766Z,8
2022-09-27T03:46:54.382Z,8.2
2022-09-27T03:48:57.987Z,8
2022-09-27T03:51:01.594Z,8
2022-09-27T03:53:05.183Z,8.5
2022-09-27T03:55:08.773Z,8.1
2022-09-27T03:57:15.489Z,8.6
2022-09-27T03:59:19.060Z,7.9
2022-09-27T04:02:26.112Z,8
2022-09-27T04:04:29.617Z,8.2
2022-09-27T04:06:33.219Z,8.3
2022-09-27T04:08:36.789Z,8
2022-09-27T04:10:43.498Z,8.5
2022-09-27T04:12:47.263Z,8.3
2022-09-27T04:14:50.709Z,8.5
2022-09-27T04:18:57.963Z,7.8
2022-09-27T04:21:01.550Z,8
2022-09-27T04:23:05.146Z,8.4
2022-09-27T04:25:11.840Z,8.4
2022-09-27T04:37:33.488Z,8.3
2022-09-27T04:39:40.165Z,7.7
2022-09-27T04:41:43.822Z,7.7
2022-09-27T04:43:47.479Z,8.2
2022-09-27T04:45:52.688Z,8.4
2022-09-27T04:47:54.611Z,8.5
2022-09-27T04:52:01.895Z,7.8
2022-09-27T04:54:08.565Z,7.9
2022-09-27T04:56:12.158Z,8.3
2022-09-27T05:02:41.468Z,8.3
2022-09-27T05:04:41.367Z,8.3
2022-09-27T05:10:55.302Z,7.6
2022-09-27T05:12:58.901Z,7.5
2022-09-27T05:17:06.167Z,8.1
2022-09-27T05:19:13.532Z,7.4
2022-09-27T05:21:16.426Z,7.9
2022-09-27T05:23:20.109Z,8.1
2022-09-27T05:25:23.677Z,7.5
2022-09-27T05:27:56.383Z,7.8
2022-09-27T05:29:30.915Z,7.5
2022-09-27T05:33:38.120Z,7.7
2022-09-27T05:37:48.424Z,7.7
2022-09-27T05:39:52.933Z,7.7
2022-09-27T05:44:31.642Z,7.6
2022-09-27T05:46:02.988Z,7.6
2022-09-27T05:48:06.521Z,7.6
2022-09-27T05:50:13.165Z,7.7
2022-09-27T05:52:20.201Z,7.7
2022-09-27T05:54:21.909Z,7.7
2022-09-27T05:55:25.273Z,7.7
2022-09-27T06:01:36.183Z,7.9
2022-09-27T06:03:42.817Z,8
2022-09-27T06:05:51.083Z,8
2022-09-27T06:07:50.048Z,8.1
2022-09-27T06:09:53.679Z,8.1
2022-09-27T06:11:57.284Z,8.2
2022-09-27T06:16:04.545Z,8.3
2022-09-27T06:18:11.229Z,8.4
2022-09-27T06:20:14.835Z,8.5
2022-09-27T06:22:18.460Z,8.5
2022-09-27T06:24:22.091Z,8.6
2022-09-27T06:26:25.696Z,8.7
2022-09-27T06:28:29.310Z,8.7
2022-09-27T06:30:32.957Z,8.6
2022-09-27T06:32:39.612Z,8.7
2022-09-27T06:34:43.192Z,8.7
2022-09-27T06:36:49.411Z,8.9
2022-09-27T06:38:50.453Z,9
2022-09-27T06:40:54.098Z,9.2
2022-09-27T06:42:57.671Z,9.2
2022-09-27T06:45:01.265Z,9.1
2022-09-27T06:47:07.948Z,9
2022-09-27T06:49:11.632Z,8.9
2022-09-27T06:51:15.193Z,9
2022-09-27T06:52:18.557Z,8.9
2022-09-27T06:54:22.147Z,8.9
2022-09-27T06:56:25.785Z,8.9
2022-09-27T06:58:29.402Z,8.9
2022-09-27T07:00:36.024Z,8.9
2022-09-27T07:02:39.651Z,9
2022-09-27T07:04:43.237Z,8.9
2022-09-27T07:06:46.872Z,9
2022-09-27T07:08:50.458Z,9.1
2022-09-27T07:10:54.114Z,9.1
2022-09-27T07:12:57.726Z,9.2
2022-09-27T07:15:04.406Z,9.3
2022-09-27T07:19:11.635Z,9.4
2022-09-27T07:21:15.211Z,9.4
2022-09-27T07:23:18.837Z,9.5
2022-09-27T07:25:22.443Z,9.5
2022-09-27T07:27:26.074Z,9.6
2022-09-27T07:31:36.346Z,9.7
2022-09-27T07:35:43.536Z,9.8
2022-09-27T07:41:54.353Z,9.9
2022-09-27T07:44:01.031Z,9.9
2022-09-27T07:46:04.769Z,9.9
2022-09-27T07:48:08.266Z,10
2022-09-27T07:51:15.181Z,10
2022-09-27T07:53:18.774Z,10
2022-09-27T07:55:24.337Z,10
2022-09-27T07:57:40.715Z,10
2022-09-27T07:59:32.633Z,10
2022-09-27T08:01:36.275Z,10
2022-09-27T08:03:39.839Z,10.1
2022-09-27T08:05:43.435Z,10.1
2022-09-27T08:07:47.027Z,10.1
2022-09-27T08:09:50.599Z,10.3
2022-09-27T08:11:57.279Z,10.5
2022-09-27T08:14:00.850Z,10.5
2022-09-27T08:16:04.503Z,10.6
2022-09-27T08:18:08.021Z,10.7
2022-09-27T08:20:11.607Z,11.2
2022-09-27T08:22:15.204Z,12.5
2022-09-27T08:24:18.807Z,13
2022-09-27T08:26:25.464Z,13.3
2022-09-27T08:28:29.026Z,13.1
2022-09-27T08:30:32.634Z,13
2022-09-27T08:32:36.184Z,13.3
2022-09-27T08:34:39.766Z,13.4
2022-09-27T08:36:43.362Z,12.9
2022-09-27T08:38:46.924Z,12.6
2022-09-27T08:40:53.598Z,12.2
2022-09-27T08:42:57.131Z,12.1
2022-09-27T08:47:24.798Z,11.3
2022-09-27T08:49:28.361Z,11.2
2022-09-27T08:53:38.547Z,11
2022-09-27T08:55:42.201Z,10.9
2022-09-27T08:57:45.660Z,10.8
2022-09-27T08:59:49.241Z,10.8
2022-09-27T09:01:52.895Z,10.7
2022-09-27T09:12:13.658Z,10.7
2022-09-27T09:14:17.606Z,10.7
2022-09-27T09:16:20.800Z,10.8
2022-09-27T09:18:24.347Z,10.9
2022-09-27T09:20:27.911Z,11
2022-09-27T09:22:34.544Z,10.9
2022-09-27T09:24:38.101Z,10.9
2022-09-27T09:26:41.639Z,10.9
2022-09-27T09:28:45.200Z,11.2
2022-09-27T09:30:48.801Z,11.3
2022-09-27T09:32:52.347Z,11.4
2022-09-27T09:34:55.902Z,11.8
2022-09-27T09:37:02.545Z,12.2
2022-09-27T09:39:06.071Z,12.2
2022-09-27T09:42:12.957Z,11.8
2022-09-27T09:44:16.660Z,11.6
2022-09-27T09:46:20.105Z,11.4
2022-09-27T09:48:23.607Z,11.4
2022-09-27T09:50:30.263Z,11.3
2022-09-27T09:52:33.835Z,11.3
2022-09-27T09:54:37.394Z,11.3
2022-09-27T09:56:40.956Z,11.3
2022-09-27T09:58:44.466Z,11.3
2022-09-27T10:00:48.078Z,11.2
2022-09-27T10:02:51.626Z,11.2
2022-09-27T10:04:58.250Z,11.4
2022-09-27T10:07:01.807Z,11.3
2022-09-27T10:11:08.914Z,11.5
2022-09-27T10:13:12.471Z,11.5
2022-09-27T10:15:16.087Z,11.7
2022-09-27T10:17:19.585Z,11.7
2022-09-27T10:19:26.205Z,11.8
2022-09-27T10:21:29.763Z,11.7
2022-09-27T10:23:33.317Z,11.6
2022-09-27T10:25:36.829Z,11.8
2022-09-27T10:27:41.100Z,11.8
2022-09-27T10:31:47.512Z,11.7
2022-09-27T10:33:54.103Z,11.8
2022-09-27T10:35:57.640Z,11.9
2022-09-27T10:38:01.641Z,12.1
2022-09-27T10:39:04.490Z,11.9
2022-09-27T10:41:08.066Z,11.9
2022-09-27T10:43:11.608Z,11.5
2022-09-27T10:45:15.109Z,11.4
2022-09-27T10:47:21.751Z,11.4
2022-09-27T10:49:25.309Z,11.3
2022-09-27T10:51:28.852Z,11.2
2022-09-27T10:53:32.388Z,11.2
2022-09-27T10:57:44.328Z,11.1
2022-09-27T10:59:43.034Z,11.3
2022-09-27T11:01:49.665Z,11.3
2022-09-27T11:12:07.388Z,11.4
2022-09-27T11:14:11.089Z,11.4
2022-09-27T11:16:17.623Z,11.3
2022-09-27T11:18:21.119Z,11.2
2022-09-27T11:20:24.645Z,11.2
2022-09-27T11:22:28.225Z,11
2022-09-27T11:24:31.781Z,11.1
2022-09-27T11:28:38.883Z,11.1
2022-09-27T11:30:45.518Z,11
2022-09-27T11:32:49.089Z,10.7
2022-09-27T11:34:52.627Z,10.6
2022-09-27T11:35:55.968Z,10.7
2022-09-27T11:37:59.506Z,10.8
2022-09-27T11:40:03.128Z,10.9
2022-09-27T11:46:23.886Z,11.1
2022-09-27T11:48:21.972Z,11.1
2022-09-27T11:50:26.372Z,11.2
2022-09-27T11:54:32.575Z,11.1
2022-09-27T11:56:36.138Z,11.2
2022-09-27T11:58:42.734Z,11.2
2022-09-27T12:00:46.277Z,11.3
2022-09-27T12:02:49.909Z,11.4
2022-09-27T12:04:55.112Z,11.5
2022-09-27T12:06:56.972Z,11.8
2022-09-27T12:11:04.101Z,11.9
2022-09-27T12:13:10.690Z,11.4
2022-09-27T12:15:14.241Z,11.5
2022-09-27T12:17:17.818Z,11.7
2022-09-27T12:19:21.363Z,11.8
2022-09-27T12:21:24.884Z,11.8
2022-09-27T12:23:28.448Z,11.9
2022-09-27T12:25:32.002Z,11.8
2022-09-27T12:27:38.700Z,11.8
2022-09-27T12:34:04.008Z,11.6
2022-09-27T12:36:07.539Z,11.7
2022-09-27T12:38:11.096Z,11.8
2022-09-27T12:40:17.899Z,11.6
2022-09-27T12:42:21.237Z,11.5
2022-09-27T12:46:29.001Z,11.4
2022-09-27T12:48:32.542Z,11.1
2022-09-27T12:50:36.054Z,11.2
2022-09-27T12:52:39.609Z,11.2
2022-09-27T12:58:53.330Z,11.2
2022-09-27T13:00:56.896Z,11.2
2022-09-27T13:03:16.416Z,11.2
2022-09-27T13:05:03.990Z,11.4
2022-09-27T13:07:07.564Z,11.4
2022-09-27T13:09:14.360Z,11.5
2022-09-27T13:11:17.691Z,11.4
2022-09-27T13:13:21.268Z,11.4
2022-09-27T13:15:24.803Z,11.3
2022-09-27T13:17:28.359Z,11.4
2022-09-27T13:19:31.922Z,11.3
2022-09-27T13:21:35.454Z,11.2
2022-09-27T13:23:42.077Z,11.2
2022-09-27T13:25:45.656Z,11.2
2022-09-27T13:27:49.176Z,11.2
2022-09-27T13:28:52.514Z,11
2022-09-27T13:30:56.139Z,11.1
2022-09-27T13:32:59.640Z,11.1
2022-09-27T13:35:03.188Z,11.1
2022-09-27T13:37:09.797Z,11.2
2022-09-27T13:39:13.342Z,11.2
2022-09-27T13:41:18.110Z,11
2022-09-27T13:43:20.467Z,11
2022-09-27T13:45:24.024Z,11
2022-09-27T13:47:27.623Z,10.9
2022-09-27T13:49:31.126Z,10.9
2022-09-27T13:51:37.939Z,10.8
2022-09-27T13:53:41.314Z,10.8
2022-09-27T13:55:44.850Z,10.8
2022-09-27T13:57:48.406Z,10.7
2022-09-27T13:59:53.010Z,10.6
2022-09-27T14:01:55.565Z,10.5
2022-09-27T14:03:59.090Z,10.5
2022-09-27T14:07:41.365Z,10.3
2022-09-27T14:14:19.989Z,10.3
2022-09-27T14:16:23.602Z,10.2
2022-09-27T14:18:27.145Z,10.3
2022-09-27T14:20:33.761Z,10.2
2022-09-27T14:22:41.052Z,10.3
2022-09-27T14:24:40.956Z,10.3
2022-09-27T14:25:44.231Z,10.2
2022-09-27T14:27:47.805Z,10.2
2022-09-27T14:29:51.374Z,10.1
2022-09-27T14:38:33.161Z,10.1
2022-09-27T14:40:12.257Z,10.2
2022-09-27T14:44:19.458Z,10.3
2022-09-27T14:46:23.085Z,10.3
2022-09-27T14:48:29.648Z,10.3
2022-09-27T14:50:33.233Z,10.4
2022-09-27T14:58:48.381Z,10.3
2022-09-27T15:00:51.076Z,10.3
2022-09-27T15:02:58.208Z,10.3
2022-09-27T15:09:08.899Z,10.3
2022-09-27T15:11:12.443Z,10.4
2022-09-27T15:13:16.638Z,10.4
2022-09-27T15:15:19.619Z,10.3
2022-09-27T15:17:26.260Z,10.4
2022-09-27T15:19:29.864Z,10.5
2022-09-27T15:21:33.423Z,10.6
2022-09-27T15:24:40.319Z,10.5
2022-09-27T15:28:47.439Z,10.5
2022-09-27T15:32:57.701Z,10.4
2022-09-27T15:35:01.286Z,10.4
2022-09-27T15:41:12.022Z,10.4
2022-09-27T15:43:15.589Z,10.3
2022-09-27T15:45:28.260Z,10.3
2022-09-27T15:47:25.790Z,10.3
2022-09-27T15:49:29.354Z,10.4
2022-09-27T15:53:36.522Z,10.3
2022-09-27T15:55:40.101Z,10.2
2022-09-27T15:57:43.683Z,10.2
2022-09-27T15:59:50.351Z,10.2
2022-09-27T16:01:54.005Z,10.2
2022-09-27T16:03:57.517Z,10.2
2022-09-27T16:06:01.092Z,10.1
2022-09-27T16:08:04.672Z,10.1
2022-09-27T16:10:08.247Z,10
2022-09-27T16:12:11.846Z,10.1
2022-09-27T16:14:18.507Z,10
2022-09-27T16:16:22.215Z,10
2022-09-27T16:18:30.166Z,10
2022-09-27T16:20:53.755Z,9.9
2022-09-27T16:22:57.345Z,9.9
2022-09-27T16:25:00.910Z,9.8
2022-09-27T16:27:18.652Z,9.8
2022-09-27T16:29:11.199Z,9.8
2022-09-27T16:31:14.811Z,9.7
2022-09-27T16:33:18.348Z,9.7
2022-09-27T16:35:21.969Z,9.7
2022-09-27T16:37:25.528Z,9.7
2022-09-27T16:39:29.105Z,9.7
2022-09-27T16:41:35.788Z,9.6
2022-09-27T16:43:39.359Z,9.6
2022-09-27T16:45:42.930Z,9.6
2022-09-27T16:49:50.122Z,9.6
2022-09-27T16:56:03.982Z,9.5
2022-09-27T16:58:07.551Z,9.5
2022-09-27T17:00:11.139Z,9.5
2022-09-27T17:02:14.779Z,9.5
2022-09-27T17:04:18.326Z,9.5
2022-09-27T17:06:21.925Z,9.5
2022-09-27T17:08:25.488Z,9.5
2022-09-27T17:10:32.176Z,9.4
2022-09-27T17:12:35.779Z,9.4
2022-09-27T17:14:39.355Z,9.4
2022-09-27T17:28:07.362Z,9.4
2022-09-27T17:30:10.956Z,9.4
2022-09-27T17:34:18.397Z,9.4
2022-09-27T17:38:40.982Z,9.4
2022-09-27T17:40:32.059Z,9.4
2022-09-27T17:42:35.642Z,9.4
2022-09-27T17:44:40.805Z,9.4
2022-09-27T17:46:44.427Z,9.2
2022-09-27T17:48:47.960Z,9.4
2022-09-27T17:50:51.527Z,9.2
2022-09-27T17:52:58.258Z,9.3
2022-09-27T17:55:01.803Z,9.2
2022-09-27T17:57:05.414Z,9.5
2022-09-27T17:59:09.044Z,9.5
2022-09-27T18:01:12.578Z,9.5
2022-09-27T18:03:16.190Z,9.5
2022-09-27T18:09:30.048Z,9.3
2022-09-27T18:11:33.620Z,9.3
2022-09-27T18:12:36.920Z,9.5
2022-09-27T18:14:40.540Z,9.3
2022-09-27T18:16:44.175Z,9.5
2022-09-27T18:18:47.689Z,9.4
2022-09-27T18:20:54.343Z,9.4
2022-09-27T18:22:57.923Z,9.4
2022-09-27T18:25:01.499Z,9.6
2022-09-27T18:27:05.097Z,9.5
2022-09-27T18:29:08.729Z,9.3
2022-09-27T18:33:15.828Z,9.3
2022-09-27T18:37:26.077Z,9.2
2022-09-27T18:41:33.266Z,9.2
2022-09-27T18:43:38.912Z,9.2
2022-09-27T18:47:43.991Z,9.2
2022-09-27T18:51:54.229Z,9.1
2022-09-27T18:53:57.763Z,9
2022-09-27T18:56:01.390Z,9.1
2022-09-27T18:58:04.971Z,9.2
2022-09-27T19:00:08.541Z,9
2022-09-27T19:04:22.883Z,9
2022-09-27T19:06:22.351Z,9.2
2022-09-27T19:08:25.945Z,9.2
2022-09-27T19:09:29.291Z,9
2022-09-27T19:11:32.851Z,9.1
2022-09-27T19:13:46.053Z,9
2022-09-27T19:15:40.178Z,9.1
2022-09-27T19:17:46.748Z,8.9
2022-09-27T19:19:50.282Z,9
2022-09-27T19:21:53.857Z,9.1
2022-09-27T19:23:57.455Z,9.1
2022-09-27T19:26:01.062Z,9
2022-09-27T19:28:04.622Z,9.1
2022-09-27T19:30:08.205Z,9
2022-09-27T19:32:14.843Z,9
2022-09-27T19:34:18.442Z,9
2022-09-27T19:36:22.015Z,9
2022-09-27T19:38:25.601Z,8.9
2022-09-27T19:40:29.222Z,8.9
2022-09-27T19:42:32.803Z,8.8
2022-09-27T19:44:36.381Z,8.8
2022-09-27T19:46:43.112Z,8.7
2022-09-27T19:48:46.641Z,8.7
2022-09-27T19:50:50.248Z,8.7
2022-09-27T19:52:53.814Z,8.9
2022-09-27T19:54:57.393Z,8.7
2022-09-27T19:57:00.989Z,8.7
2022-09-27T19:59:07.200Z,8.7
2022-09-27T20:01:11.247Z,8.9
2022-09-27T20:03:14.997Z,8.8
2022-09-27T20:05:18.472Z,8.7
2022-09-27T20:07:42.090Z,8.8
2022-09-27T20:09:45.688Z,8.9
2022-09-27T20:11:49.276Z,8.9
2022-09-27T20:13:55.967Z,8.9
2022-09-27T20:15:59.593Z,9
2022-09-27T20:18:05.903Z,8.8
2022-09-27T20:20:06.745Z,8.6
2022-09-27T20:22:10.340Z,8.6
2022-09-27T20:24:13.925Z,8.9
2022-09-27T20:26:17.515Z,8.8
2022-09-27T20:28:24.206Z,8.9
2022-09-27T20:30:27.795Z,8.9
2022-09-27T20:32:31.454Z,8.6
2022-09-27T20:34:34.997Z,8.6
2022-09-27T20:38:42.179Z,8.8
2022-09-27T20:40:45.802Z,8.6
2022-09-27T20:42:52.460Z,8.5
2022-09-27T20:46:59.699Z,8.8
2022-09-27T20:49:03.237Z,8.6
2022-09-27T20:51:06.822Z,8.6
2022-09-27T20:53:10.416Z,8.6
2022-09-27T20:55:14.008Z,8.8
2022-09-27T20:57:27.850Z,8.6
2022-09-27T20:59:24.425Z,8.7
2022-09-27T21:01:27.871Z,8.6
2022-09-27T21:02:31.316Z,8.8
2022-09-27T21:04:34.832Z,8.5
2022-09-27T21:06:38.412Z,8.6
2022-09-27T21:08:42.034Z,8.5
2022-09-27T21:12:52.298Z,8.8
2022-09-27T21:14:55.925Z,8.6
2022-09-27T21:17:01.901Z,8.8
2022-09-27T21:19:03.109Z,8.5
2022-09-27T21:21:06.711Z,8.8
2022-09-27T21:23:10.322Z,8.5
2022-09-27T21:25:17.035Z,8.7
2022-09-27T21:27:20.603Z,8.5
2022-09-27T21:29:24.240Z,8.8
2022-09-27T21:31:27.894Z,8.8
2022-09-27T21:33:31.460Z,8.5
2022-09-27T21:35:35.040Z,8.6
2022-09-27T21:37:39.102Z,8.7
2022-09-27T21:39:45.329Z,8.7
2022-09-27T21:41:48.921Z,8.8
2022-09-27T21:43:52.517Z,8.5
2022-09-27T21:45:56.147Z,8.5
2022-09-27T21:47:59.736Z,8.8
2022-09-27T21:50:03.359Z,8.6
2022-09-27T21:52:06.952Z,8.6
2022-09-27T21:54:13.685Z,8.5
2022-09-27T21:56:17.272Z,8.9
2022-09-27T21:58:20.876Z,8.8
2022-09-27T21:59:24.256Z,8.6
2022-09-27T22:01:27.831Z,8.5
2022-09-27T22:03:31.424Z,8.8
2022-09-27T22:05:35.046Z,8.7
2022-09-27T22:07:41.724Z,8.5
2022-09-27T22:09:45.279Z,8.7
2022-09-27T22:11:48.906Z,8.8
2022-09-27T22:13:52.515Z,8.5
2022-09-27T22:15:56.180Z,8.8
2022-09-27T22:17:59.742Z,8.5
2022-09-27T22:20:03.302Z,8.8
2022-09-27T22:22:10.024Z,8.6
2022-09-27T22:28:20.815Z,8.7
2022-09-27T22:34:31.630Z,8.4
2022-09-27T22:44:52.696Z,8.6
2022-09-27T22:46:56.447Z,8.3
2022-09-27T22:48:59.935Z,8.4
2022-09-27T22:51:06.605Z,8.5
2022-09-27T22:53:10.213Z,8.5
2022-09-27T22:55:17.890Z,8.5
2022-09-27T22:56:17.939Z,8.4
2022-09-27T23:02:28.721Z,8.1
2022-09-27T23:04:35.432Z,7.9
2022-09-27T23:06:39.019Z,8.1
2022-09-27T23:08:42.638Z,8
2022-09-27T23:10:46.240Z,8.1
2022-09-27T23:12:49.819Z,7.7
2022-09-27T23:14:53.444Z,7.9
2022-09-27T23:16:57.064Z,7.9
2022-09-27T23:21:07.392Z,7.9
2022-09-27T23:23:10.983Z,7.6
2022-09-27T23:25:14.592Z,7.8
2022-09-27T23:27:18.221Z,7.6
2022-09-27T23:29:21.824Z,7.7
2022-09-27T23:31:25.525Z,7.6
2022-09-27T23:33:32.151Z,7.9
2022-09-27T23:37:39.798Z,7.7
2022-09-27T23:43:52.230Z,7.8
2022-09-27T23:48:02.547Z,7.6
2022-09-27T23:50:06.100Z,7.7
2022-09-27T23:52:09.758Z,7.7
2022-09-27T23:54:31.979Z,7.6
2022-09-27T23:58:39.204Z,7.6
